Time;durP1;ratioP1;P1;durP2;ratioP2;P2;SDS_P1;SDS_P2;PMS_P1;PMS_P2;Temp;Humidity;BMP_temperature;BMP_pressure;BME280_temperature;BME280_humidity;BME280_pressure;Samples;Min_cycle;Max_cycle;Signal;HPM_P1;HPM_P2
2023/08/29 00:00:23;;;;;;;0.10;0.10;;;14.20;99.90;;;;;;5045929;28;20488;-77
2023/08/29 00:02:49;;;;;;;0.10;0.10;;;14.20;99.90;;;;;;5027427;28;20609;-77
2023/08/29 00:05:15;;;;;;;0.10;0.10;;;14.20;99.90;;;;;;5028725;28;20037;-77
2023/08/29 00:07:41;;;;;;;0.10;0.10;;;14.20;99.90;;;;;;5046586;28;20053;-77
2023/08/29 00:10:07;;;;;;;0.10;0.10;;;14.20;99.90;;;;;;5032607;28;20128;-77
2023/08/29 00:12:33;;;;;;;0.10;0.10;;;14.20;99.90;;;;;;5047346;28;20488;-77
2023/08/29 00:15:00;;;;;;;0.10;0.10;;;14.10;99.90;;;;;;5030351;28;20117;-77
2023/08/29 00:17:26;;;;;;;0.17;0.17;;;14.10;99.90;;;;;;5026789;28;20102;-77
2023/08/29 00:19:53;;;;;;;0.20;0.20;;;14.10;99.90;;;;;;5050181;28;20119;-77
2023/08/29 00:22:20;;;;;;;0.20;0.20;;;14.00;99.90;;;;;;5048891;28;20037;-77
2023/08/29 00:24:47;;;;;;;0.10;0.10;;;14.10;99.90;;;;;;5030212;28;20041;-77
2023/08/29 00:27:13;;;;;;;0.10;0.10;;;14.00;99.90;;;;;;5027130;28;20467;-77
2023/08/29 00:29:38;;;;;;;0.10;0.10;;;13.90;99.90;;;;;;5049763;28;20045;-77
2023/08/29 00:32:04;;;;;;;0.17;0.17;;;13.90;99.90;;;;;;5031826;28;20044;-78
2023/08/29 00:34:30;;;;;;;0.10;0.10;;;13.90;99.90;;;;;;5032697;28;20045;-77
2023/08/29 00:36:56;;;;;;;0.10;0.10;;;13.90;99.90;;;;;;5047429;28;20041;-77
2023/08/29 00:39:22;;;;;;;0.17;0.17;;;13.80;99.90;;;;;;5049094;28;20033;-77
2023/08/29 00:41:49;;;;;;;0.20;0.20;;;13.80;99.90;;;;;;5028563;28;20037;-77
2023/08/29 00:44:18;;;;;;;0.20;0.20;;;13.80;99.90;;;;;;5028106;28;20048;-77
2023/08/29 00:46:45;;;;;;;0.10;0.10;;;13.80;99.90;;;;;;5046988;28;20452;-77
2023/08/29 00:49:13;;;;;;;0.10;0.10;;;13.80;99.90;;;;;;5048417;28;20552;-78
2023/08/29 00:51:39;;;;;;;0.10;0.10;;;13.80;99.90;;;;;;5030129;28;20045;-77
2023/08/29 00:54:07;;;;;;;0.10;0.10;;;13.70;99.90;;;;;;5031525;28;20128;-78
2023/08/29 00:56:33;;;;;;;0.10;0.10;;;13.70;99.90;;;;;;5048412;28;20041;-77
2023/08/29 00:59:00;;;;;;;0.10;0.10;;;13.70;99.90;;;;;;5043656;28;20029;-77
2023/08/29 01:01:26;;;;;;;0.10;0.10;;;13.70;99.90;;;;;;5047460;28;20573;-77
2023/08/29 01:03:52;;;;;;;0.10;0.10;;;13.70;99.90;;;;;;5028206;28;20114;-77
2023/08/29 01:06:18;;;;;;;0.10;0.10;;;13.70;99.90;;;;;;5042116;28;20041;-77
2023/08/29 01:08:45;;;;;;;0.10;0.10;;;13.60;99.90;;;;;;5028354;28;20110;-77
2023/08/29 01:11:17;;;;;;;0.20;0.20;;;13.70;99.90;;;;;;5028733;28;20049;-77
2023/08/29 01:14:08;;;;;;;0.10;0.10;;;13.60;99.90;;;;;;5031797;28;20052;-77
2023/08/29 01:16:40;;;;;;;0.20;0.20;;;13.60;99.90;;;;;;5026077;28;20110;-77
2023/08/29 01:19:13;;;;;;;0.10;0.10;;;13.60;99.90;;;;;;5027030;28;20040;-77
2023/08/29 01:22:21;;;;;;;0.10;0.10;;;13.60;99.90;;;;;;5031474;28;20041;-77
2023/08/29 01:25:00;;;;;;;0.10;0.10;;;13.60;99.90;;;;;;4967910;28;20065;-77
2023/08/29 01:27:27;;;;;;;0.10;0.10;;;13.60;99.90;;;;;;5028982;28;20407;-77
2023/08/29 01:29:53;;;;;;;0.10;0.10;;;13.60;99.90;;;;;;5043665;28;20060;-77
2023/08/29 01:32:20;;;;;;;0.10;0.10;;;13.70;99.90;;;;;;5045152;28;20040;-77
2023/08/29 01:34:46;;;;;;;0.10;0.10;;;13.60;99.90;;;;;;5029904;28;20446;-77
2023/08/29 01:37:12;;;;;;;0.10;0.10;;;13.60;99.90;;;;;;5028763;28;20044;-77
2023/08/29 01:39:38;;;;;;;0.10;0.10;;;13.50;99.90;;;;;;5027356;28;20040;-77
2023/08/29 01:42:03;;;;;;;0.10;0.10;;;13.50;99.90;;;;;;5027789;28;20094;-77
2023/08/29 01:44:29;;;;;;;0.10;0.10;;;13.50;99.90;;;;;;5023206;28;20397;-77
2023/08/29 01:46:55;;;;;;;0.13;0.13;;;13.50;99.90;;;;;;5025688;28;20439;-77
2023/08/29 01:49:20;;;;;;;0.13;0.13;;;13.50;99.90;;;;;;5027878;28;20125;-77
2023/08/29 01:51:46;;;;;;;0.20;0.20;;;13.40;99.90;;;;;;5023960;28;20045;-77
2023/08/29 01:54:12;;;;;;;0.10;0.10;;;13.40;99.90;;;;;;5044147;28;20492;-77
2023/08/29 01:56:39;;;;;;;0.20;0.20;;;13.40;99.90;;;;;;5050238;28;20041;-78
2023/08/29 01:59:06;;;;;;;0.13;0.13;;;13.40;99.90;;;;;;5028366;28;20053;-78
2023/08/29 02:01:34;;;;;;;0.10;0.10;;;13.40;99.90;;;;;;5030400;28;20041;-77
2023/08/29 02:03:59;;;;;;;0.10;0.10;;;13.40;99.90;;;;;;5026065;28;20378;-78
2023/08/29 02:06:25;;;;;;;0.20;0.20;;;13.40;99.90;;;;;;5047760;28;20051;-77
2023/08/29 02:08:51;;;;;;;0.20;0.20;;;13.40;99.90;;;;;;5030712;28;20044;-77
2023/08/29 02:11:16;;;;;;;0.10;0.10;;;13.40;99.90;;;;;;5046816;28;20037;-77
2023/08/29 02:13:42;;;;;;;0.10;0.10;;;13.30;99.90;;;;;;5031376;28;20068;-78
2023/08/29 02:16:08;;;;;;;0.20;0.20;;;13.30;99.90;;;;;;5047415;28;20045;-77
2023/08/29 02:18:34;;;;;;;0.10;0.10;;;13.20;99.90;;;;;;5048234;28;20122;-77
2023/08/29 02:21:00;;;;;;;0.10;0.10;;;13.10;99.90;;;;;;5042124;28;20091;-77
2023/08/29 02:23:25;;;;;;;0.10;0.10;;;13.10;99.90;;;;;;5046490;28;20056;-78
2023/08/29 02:26:04;;;;;;;0.10;0.10;;;13.10;99.90;;;;;;5047292;28;20484;-78
2023/08/29 02:28:37;;;;;;;0.10;0.10;;;13.10;99.90;;;;;;5028092;28;20055;-77
2023/08/29 02:31:04;;;;;;;0.20;0.20;;;13.10;99.90;;;;;;5029587;28;20523;-77
2023/08/29 02:33:30;;;;;;;0.10;0.10;;;13.00;99.90;;;;;;5047661;28;20133;-77
2023/08/29 02:35:56;;;;;;;0.10;0.10;;;13.00;99.90;;;;;;5047737;28;20029;-77
2023/08/29 02:38:22;;;;;;;0.20;0.20;;;13.10;99.90;;;;;;5029562;28;20041;-77
2023/08/29 02:40:48;;;;;;;0.20;0.20;;;13.10;99.90;;;;;;5029092;28;20041;-78
2023/08/29 02:43:13;;;;;;;0.10;0.10;;;13.10;99.90;;;;;;5046115;28;20051;-77
2023/08/29 02:45:39;;;;;;;0.10;0.10;;;13.10;99.90;;;;;;5025920;28;20554;-78
2023/08/29 02:48:05;;;;;;;0.10;0.10;;;13.10;99.90;;;;;;5047488;28;20059;-79
2023/08/29 02:50:32;;;;;;;0.10;0.10;;;13.00;99.90;;;;;;5027280;28;20473;-78
2023/08/29 02:52:57;;;;;;;0.10;0.10;;;13.00;99.90;;;;;;5028540;28;20045;-77
2023/08/29 02:55:23;;;;;;;0.10;0.10;;;13.00;99.90;;;;;;5046244;28;20068;-77
2023/08/29 02:57:49;;;;;;;0.10;0.10;;;12.90;99.90;;;;;;5025066;28;20044;-78
2023/08/29 03:00:15;;;;;;;0.20;0.20;;;13.00;99.90;;;;;;5023544;28;20119;-77
2023/08/29 03:02:41;;;;;;;0.10;0.10;;;12.90;99.90;;;;;;5026286;28;20044;-78
2023/08/29 03:05:08;;;;;;;0.10;0.10;;;12.90;99.90;;;;;;5047427;28;20100;-78
2023/08/29 03:07:33;;;;;;;0.10;0.10;;;12.90;99.90;;;;;;5029060;28;20044;-78
2023/08/29 03:09:59;;;;;;;0.10;0.10;;;12.90;99.90;;;;;;5047730;28;20623;-78
2023/08/29 03:12:25;;;;;;;0.10;0.10;;;12.90;99.90;;;;;;5046424;28;20091;-77
2023/08/29 03:14:53;;;;;;;0.20;0.20;;;12.90;99.90;;;;;;5047347;28;20076;-77
2023/08/29 03:17:19;;;;;;;0.10;0.10;;;12.80;99.90;;;;;;5043386;28;20033;-77
2023/08/29 03:19:47;;;;;;;0.20;0.20;;;12.90;99.90;;;;;;5028721;28;20480;-77
2023/08/29 03:22:13;;;;;;;0.10;0.10;;;12.80;99.90;;;;;;5022456;28;20037;-77
2023/08/29 03:24:39;;;;;;;0.10;0.10;;;12.80;99.90;;;;;;5029658;28;20049;-77
2023/08/29 03:27:05;;;;;;;0.15;0.15;;;13.10;99.90;;;;;;5045736;28;20049;-77
2023/08/29 03:29:31;;;;;;;0.20;0.20;;;12.80;99.90;;;;;;5026188;28;20041;-77
2023/08/29 03:31:56;;;;;;;0.10;0.10;;;12.80;99.90;;;;;;5042421;28;20099;-77
2023/08/29 03:34:22;;;;;;;0.10;0.10;;;12.80;99.90;;;;;;5041405;28;20045;-77
2023/08/29 03:36:48;;;;;;;0.20;0.20;;;12.80;99.90;;;;;;5028843;28;20047;-77
2023/08/29 03:39:14;;;;;;;0.10;0.10;;;12.80;99.90;;;;;;5046844;28;20120;-77
2023/08/29 03:41:39;;;;;;;0.13;0.13;;;12.80;99.90;;;;;;5028770;28;20057;-77
2023/08/29 03:44:05;;;;;;;0.20;0.20;;;12.80;99.90;;;;;;5045895;28;20044;-77
2023/08/29 03:46:31;;;;;;;0.10;0.10;;;12.80;99.90;;;;;;5027782;28;20052;-77
2023/08/29 03:48:57;;;;;;;0.10;0.10;;;12.80;99.90;;;;;;5028407;28;20052;-77
2023/08/29 03:51:22;;;;;;;0.10;0.10;;;12.70;99.90;;;;;;5040438;28;20688;-77
2023/08/29 03:53:48;;;;;;;0.10;0.10;;;12.70;99.90;;;;;;5029331;28;20063;-77
2023/08/29 03:56:14;;;;;;;0.10;0.10;;;12.70;99.90;;;;;;5029360;28;20033;-77
2023/08/29 03:58:39;;;;;;;0.10;0.10;;;12.70;99.90;;;;;;5028625;28;21196;-77
2023/08/29 04:01:05;;;;;;;0.20;0.20;;;12.60;99.90;;;;;;5027031;28;20060;-77
2023/08/29 04:03:31;;;;;;;0.20;0.20;;;12.70;99.90;;;;;;5042105;28;20053;-77
2023/08/29 04:05:57;;;;;;;0.10;0.10;;;12.70;99.90;;;;;;5025946;28;20061;-77
2023/08/29 04:08:23;;;;;;;0.20;0.20;;;12.60;99.90;;;;;;5026792;28;20041;-77
2023/08/29 04:10:49;;;;;;;0.20;0.20;;;12.60;99.90;;;;;;5021459;28;20190;-77
2023/08/29 04:13:15;;;;;;;0.10;0.10;;;12.60;99.90;;;;;;5045200;28;20052;-77
2023/08/29 04:15:41;;;;;;;0.10;0.10;;;12.60;99.90;;;;;;5043801;28;20071;-77
2023/08/29 04:18:07;;;;;;;0.10;0.10;;;12.60;99.90;;;;;;5026948;28;20552;-77
2023/08/29 04:20:34;;;;;;;0.10;0.10;;;12.60;99.90;;;;;;5045559;28;20041;-76
2023/08/29 04:23:02;;;;;;;0.10;0.10;;;12.50;99.90;;;;;;5025126;28;20110;-76
2023/08/29 04:25:29;;;;;;;0.10;0.10;;;12.60;99.90;;;;;;5023153;28;20462;-77
2023/08/29 04:27:55;;;;;;;0.10;0.10;;;12.50;99.90;;;;;;5022910;28;20057;-77
2023/08/29 04:30:20;;;;;;;0.15;0.15;;;12.50;99.90;;;;;;5022189;28;20043;-77
2023/08/29 04:32:50;;;;;;;0.10;0.10;;;12.50;99.90;;;;;;5028520;28;20045;-77
2023/08/29 04:35:16;;;;;;;0.10;0.10;;;12.50;99.90;;;;;;5026862;28;20127;-77
2023/08/29 04:37:46;;;;;;;0.17;0.17;;;12.50;99.90;;;;;;5022290;28;20053;-77
2023/08/29 04:40:13;;;;;;;0.10;0.10;;;12.50;99.90;;;;;;5044630;28;20385;-77
2023/08/29 04:42:40;;;;;;;0.10;0.10;;;12.50;99.90;;;;;;5027345;28;20374;-77
2023/08/29 04:45:07;;;;;;;0.10;0.10;;;12.50;99.90;;;;;;5045981;28;20049;-77
2023/08/29 04:47:34;;;;;;;0.10;0.10;;;12.50;99.90;;;;;;5025308;28;21252;-76
2023/08/29 04:50:00;;;;;;;0.10;0.10;;;12.50;99.90;;;;;;5023024;28;20453;-77
2023/08/29 04:52:27;;;;;;;0.20;0.20;;;12.50;99.90;;;;;;5027085;28;20057;-77
2023/08/29 04:54:53;;;;;;;0.10;0.10;;;12.50;99.90;;;;;;5047624;28;20044;-77
2023/08/29 04:57:19;;;;;;;0.10;0.10;;;12.50;99.90;;;;;;5048014;28;20041;-77
2023/08/29 04:59:45;;;;;;;0.20;0.20;;;12.50;99.90;;;;;;5049532;28;20047;-77
2023/08/29 05:02:10;;;;;;;0.10;0.10;;;12.50;99.90;;;;;;5023073;28;20049;-77
2023/08/29 05:04:36;;;;;;;0.20;0.20;;;12.50;99.90;;;;;;5028449;28;20056;-77
2023/08/29 05:07:03;;;;;;;0.10;0.10;;;12.50;99.90;;;;;;5030826;28;20111;-77
2023/08/29 05:09:28;;;;;;;0.10;0.10;;;12.50;99.90;;;;;;5029249;28;20056;-77
2023/08/29 05:11:54;;;;;;;0.10;0.10;;;12.50;99.90;;;;;;5025269;28;20033;-77
2023/08/29 05:14:20;;;;;;;0.10;0.10;;;12.60;99.90;;;;;;5028620;28;20045;-76
2023/08/29 05:16:45;;;;;;;0.20;0.20;;;12.50;99.90;;;;;;5026615;28;20076;-77
2023/08/29 05:19:11;;;;;;;0.20;0.20;;;12.50;99.90;;;;;;5029700;28;20041;-76
2023/08/29 05:21:37;;;;;;;0.15;0.15;;;12.50;99.90;;;;;;5030105;28;20045;-77
2023/08/29 05:24:04;;;;;;;0.17;0.17;;;12.50;99.90;;;;;;5029936;28;20044;-77
2023/08/29 05:26:30;;;;;;;0.10;0.10;;;12.50;99.90;;;;;;5046554;28;20037;-76
2023/08/29 05:28:56;;;;;;;0.20;0.20;;;12.50;99.90;;;;;;5028509;28;20041;-76
2023/08/29 05:31:21;;;;;;;0.10;0.10;;;12.50;99.90;;;;;;5030022;28;20048;-77
2023/08/29 05:33:47;;;;;;;0.10;0.10;;;12.50;99.90;;;;;;5029982;28;20545;-77
2023/08/29 05:36:13;;;;;;;0.10;0.10;;;12.50;99.90;;;;;;5041560;28;20033;-77
2023/08/29 05:38:39;;;;;;;0.10;0.10;;;12.50;99.90;;;;;;5046149;28;20049;-77
2023/08/29 05:41:05;;;;;;;0.20;0.20;;;12.60;99.90;;;;;;5049237;28;20081;-77
2023/08/29 05:43:31;;;;;;;0.20;0.20;;;12.60;99.90;;;;;;5049120;28;20524;-77
2023/08/29 05:45:57;;;;;;;0.20;0.20;;;12.70;99.90;;;;;;5030146;28;20037;-76
2023/08/29 05:48:23;;;;;;;0.10;0.10;;;12.60;99.90;;;;;;5029814;28;20107;-77
2023/08/29 05:50:52;;;;;;;0.10;0.10;;;12.60;99.90;;;;;;5028981;28;20400;-77
2023/08/29 05:53:18;;;;;;;0.10;0.10;;;12.70;99.90;;;;;;5030589;28;20045;-77
2023/08/29 05:55:44;;;;;;;0.10;0.10;;;12.70;99.90;;;;;;5049958;28;20056;-77
2023/08/29 05:58:10;;;;;;;0.10;0.10;;;12.80;99.90;;;;;;5046615;28;20044;-77
2023/08/29 06:00:37;;;;;;;0.20;0.20;;;12.80;99.90;;;;;;5030328;28;20110;-77
2023/08/29 06:03:04;;;;;;;0.10;0.10;;;12.80;99.90;;;;;;5048267;28;20595;-76
2023/08/29 06:05:31;;;;;;;0.20;0.20;;;12.90;99.90;;;;;;5027616;28;20037;-77
2023/08/29 06:08:02;;;;;;;0.20;0.20;;;12.90;99.90;;;;;;5027873;28;20437;-76
2023/08/29 06:10:29;;;;;;;0.10;0.10;;;12.80;99.90;;;;;;5046248;28;20280;-77
2023/08/29 06:12:55;;;;;;;0.10;0.10;;;13.10;99.90;;;;;;5030799;28;20045;-77
2023/08/29 06:15:22;;;;;;;0.10;0.10;;;13.10;99.90;;;;;;5043756;28;20094;-77
2023/08/29 06:17:48;;;;;;;0.10;0.10;;;13.10;99.90;;;;;;5029120;28;20045;-77
2023/08/29 06:20:16;;;;;;;0.10;0.10;;;13.20;99.90;;;;;;5024839;28;20408;-77
2023/08/29 06:22:42;;;;;;;0.10;0.10;;;13.20;99.90;;;;;;5047088;28;20184;-76
2023/08/29 06:25:09;;;;;;;0.10;0.10;;;13.20;99.90;;;;;;5029933;28;20522;-77
2023/08/29 06:27:36;;;;;;;0.13;0.13;;;13.30;99.90;;;;;;5044725;28;20144;-77
2023/08/29 06:30:02;;;;;;;0.08;0.08;;;13.40;99.90;;;;;;5029659;28;20395;-77
2023/08/29 06:32:29;;;;;;;0.10;0.10;;;13.40;99.90;;;;;;5044164;28;20029;-77
2023/08/29 06:34:55;;;;;;;0.10;0.10;;;13.50;99.90;;;;;;5041266;28;20044;-77
2023/08/29 06:37:21;;;;;;;0.10;0.10;;;13.60;99.90;;;;;;5028168;28;20041;-76
2023/08/29 06:39:47;;;;;;;0.10;0.10;;;13.70;99.90;;;;;;5028938;28;20033;-77
2023/08/29 06:42:13;;;;;;;0.10;0.10;;;13.70;99.90;;;;;;5028005;28;20047;-76
2023/08/29 06:44:38;;;;;;;0.10;0.10;;;13.80;99.90;;;;;;5026230;28;20040;-76
2023/08/29 06:47:04;;;;;;;0.10;0.10;;;13.90;99.90;;;;;;5026557;28;20053;-77
2023/08/29 06:49:30;;;;;;;0.10;0.10;;;14.00;99.90;;;;;;5022745;28;20059;-77
2023/08/29 06:51:56;;;;;;;0.20;0.20;;;14.10;99.90;;;;;;5047792;28;20064;-77
2023/08/29 06:54:22;;;;;;;0.10;0.10;;;14.10;99.90;;;;;;5047686;28;20040;-76
2023/08/29 06:56:49;;;;;;;0.10;0.10;;;14.20;99.90;;;;;;5026882;28;20044;-76
2023/08/29 06:59:15;;;;;;;0.17;0.17;;;14.30;99.90;;;;;;5045289;28;20037;-76
2023/08/29 07:01:41;;;;;;;0.10;0.10;;;14.40;99.90;;;;;;5027273;28;20041;-76
2023/08/29 07:04:09;;;;;;;0.10;0.10;;;14.50;99.90;;;;;;5026472;28;20056;-77
2023/08/29 07:06:34;;;;;;;0.10;0.10;;;14.60;99.90;;;;;;5040395;28;20501;-78
2023/08/29 07:09:00;;;;;;;0.20;0.20;;;14.70;99.90;;;;;;5047065;28;20048;-77
2023/08/29 07:11:26;;;;;;;0.20;0.20;;;14.80;99.90;;;;;;5028104;28;20110;-77
2023/08/29 07:13:52;;;;;;;0.10;0.10;;;14.80;99.90;;;;;;5026807;28;20059;-77
2023/08/29 07:16:18;;;;;;;0.10;0.10;;;14.90;99.90;;;;;;5044117;28;20056;-77
2023/08/29 07:18:44;;;;;;;0.10;0.10;;;15.00;99.90;;;;;;5020898;28;20067;-77
2023/08/29 07:21:10;;;;;;;0.10;0.10;;;15.10;99.90;;;;;;5047787;28;20041;-77
2023/08/29 07:23:36;;;;;;;0.20;0.20;;;15.20;99.90;;;;;;5029887;28;20417;-77
2023/08/29 07:26:02;;;;;;;0.20;0.20;;;15.20;99.90;;;;;;5029898;28;20811;-78
2023/08/29 07:28:27;;;;;;;0.10;0.10;;;15.30;99.90;;;;;;5019807;28;20057;-77
2023/08/29 07:30:53;;;;;;;0.10;0.10;;;15.40;99.90;;;;;;5020971;28;20460;-77
2023/08/29 07:33:19;;;;;;;0.10;0.10;;;15.40;99.90;;;;;;5027375;28;20048;-77
2023/08/29 07:35:47;;;;;;;0.10;0.10;;;15.50;99.90;;;;;;5029454;28;20067;-78
2023/08/29 07:38:13;;;;;;;0.10;0.10;;;15.60;99.90;;;;;;5020993;28;20049;-77
2023/08/29 07:40:39;;;;;;;0.20;0.20;;;15.60;99.90;;;;;;5029965;28;20171;-77
2023/08/29 07:43:07;;;;;;;0.20;0.20;;;15.70;99.90;;;;;;5028235;28;20132;-77
2023/08/29 07:45:34;;;;;;;0.15;0.15;;;15.70;99.90;;;;;;5027714;28;20432;-77
2023/08/29 07:48:00;;;;;;;0.15;0.15;;;15.80;99.90;;;;;;5028948;28;20408;-78
2023/08/29 07:50:27;;;;;;;0.10;0.10;;;15.90;99.90;;;;;;5029238;28;20497;-77
2023/08/29 07:52:53;;;;;;;0.10;0.10;;;15.90;99.90;;;;;;5029572;28;20545;-77
2023/08/29 07:55:19;;;;;;;0.10;0.10;;;15.90;99.90;;;;;;5027177;28;20037;-78
2023/08/29 07:57:44;;;;;;;0.10;0.10;;;16.00;99.90;;;;;;5028400;28;20057;-77
2023/08/29 08:00:12;;;;;;;0.20;0.20;;;16.00;99.90;;;;;;5042608;28;20041;-77
2023/08/29 08:02:38;;;;;;;0.13;0.13;;;16.10;99.90;;;;;;5039206;28;20037;-77
2023/08/29 08:05:12;;;;;;;0.10;0.10;;;16.20;99.90;;;;;;5042188;28;20078;-77
2023/08/29 08:07:39;;;;;;;0.10;0.10;;;16.20;99.90;;;;;;5026085;28;20053;-77
2023/08/29 08:10:06;;;;;;;0.10;0.10;;;16.20;99.90;;;;;;5041714;28;20040;-77
2023/08/29 08:12:32;;;;;;;0.10;0.10;;;16.30;99.90;;;;;;5022720;28;20068;-78
2023/08/29 08:14:58;;;;;;;0.20;0.20;;;16.40;99.90;;;;;;5036348;28;20095;-77
2023/08/29 08:17:24;;;;;;;0.10;0.10;;;16.40;99.90;;;;;;5019260;28;20094;-77
2023/08/29 08:19:50;;;;;;;0.10;0.10;;;16.50;99.90;;;;;;5021279;28;20059;-77
2023/08/29 08:22:16;;;;;;;0.15;0.15;;;16.50;99.90;;;;;;5025161;28;20048;-77
2023/08/29 08:24:42;;;;;;;0.10;0.10;;;16.50;99.90;;;;;;5023773;28;20049;-78
2023/08/29 08:27:07;;;;;;;0.10;0.10;;;16.60;99.90;;;;;;5023404;28;20059;-78
2023/08/29 08:29:33;;;;;;;0.20;0.20;;;16.60;99.90;;;;;;5023917;28;20049;-78
2023/08/29 08:31:59;;;;;;;0.13;0.13;;;16.70;99.90;;;;;;5021651;28;20041;-77
2023/08/29 08:34:25;;;;;;;0.10;0.10;;;16.70;99.90;;;;;;5041319;28;20052;-78
2023/08/29 08:36:51;;;;;;;0.10;0.10;;;16.80;99.90;;;;;;5029910;28;20041;-78
2023/08/29 08:39:17;;;;;;;0.20;0.20;;;16.90;99.90;;;;;;5025322;28;20053;-77
2023/08/29 08:41:43;;;;;;;0.20;0.20;;;16.90;99.90;;;;;;5028645;28;20033;-78
2023/08/29 08:44:11;;;;;;;0.20;0.20;;;17.00;99.90;;;;;;5026528;28;20053;-78
2023/08/29 08:46:37;;;;;;;0.20;0.20;;;17.10;99.90;;;;;;5030749;28;20045;-77
2023/08/29 08:49:04;;;;;;;0.10;0.10;;;17.20;99.90;;;;;;5030007;28;20044;-79
2023/08/29 08:51:32;;;;;;;0.20;0.20;;;17.30;99.90;;;;;;5041594;28;20048;-76
2023/08/29 08:53:58;;;;;;;0.10;0.10;;;17.30;99.90;;;;;;5024650;28;20128;-77
2023/08/29 08:56:24;;;;;;;0.10;0.10;;;17.40;99.90;;;;;;5023429;28;20041;-77
2023/08/29 08:58:50;;;;;;;0.10;0.10;;;17.50;99.90;;;;;;5025947;28;20048;-77
2023/08/29 09:01:16;;;;;;;0.10;0.10;;;17.50;99.90;;;;;;5030881;28;20125;-78
2023/08/29 09:03:45;;;;;;;0.20;0.20;;;17.60;99.90;;;;;;5023590;28;20162;-77
2023/08/29 09:06:14;;;;;;;0.20;0.20;;;17.70;99.90;;;;;;5023804;28;20075;-77
2023/08/29 09:08:39;;;;;;;0.10;0.10;;;17.80;99.90;;;;;;5029122;28;20087;-77
2023/08/29 09:11:05;;;;;;;0.13;0.13;;;17.70;99.90;;;;;;5032987;28;20084;-78
2023/08/29 09:13:31;;;;;;;0.20;0.20;;;17.80;99.90;;;;;;5029767;28;20052;-77
2023/08/29 09:16:01;;;;;;;0.20;0.20;;;17.90;99.90;;;;;;5030792;28;20558;-78
2023/08/29 09:18:31;;;;;;;0.17;0.17;;;17.90;99.90;;;;;;5031471;28;20052;-77
2023/08/29 09:21:00;;;;;;;0.20;0.20;;;18.00;99.90;;;;;;5029335;28;20041;-77
2023/08/29 09:23:28;;;;;;;0.10;0.10;;;18.00;99.90;;;;;;5030798;28;20119;-76
2023/08/29 09:25:59;;;;;;;0.20;0.20;;;18.10;99.90;;;;;;5032503;28;20481;-77
2023/08/29 09:28:29;;;;;;;0.20;0.20;;;18.20;99.90;;;;;;5032170;28;20508;-76
2023/08/29 09:31:08;;;;;;;0.20;0.20;;;18.20;99.90;;;;;;5048079;28;20037;-77
2023/08/29 09:33:35;;;;;;;0.20;0.20;;;18.20;99.90;;;;;;5049302;28;20044;-76
2023/08/29 09:36:03;;;;;;;0.10;0.10;;;18.30;99.90;;;;;;5049906;28;20493;-76
2023/08/29 09:38:30;;;;;;;0.10;0.10;;;18.30;99.90;;;;;;5031580;28;20480;-77
2023/08/29 09:40:55;;;;;;;0.20;0.20;;;18.40;99.90;;;;;;5031228;28;20041;-77
2023/08/29 09:43:21;;;;;;;0.20;0.20;;;18.50;99.90;;;;;;5050200;28;20345;-77
2023/08/29 09:45:52;;;;;;;0.20;0.20;;;18.60;99.90;;;;;;5031214;28;20495;-76
2023/08/29 09:48:18;;;;;;;0.20;0.20;;;18.60;99.90;;;;;;5048505;28;20124;-77
2023/08/29 09:50:45;;;;;;;0.10;0.10;;;18.70;99.90;;;;;;5030903;28;20056;-76
2023/08/29 09:53:15;;;;;;;0.20;0.20;;;18.70;99.90;;;;;;5049694;28;20048;-77
2023/08/29 09:55:44;;;;;;;0.20;0.20;;;18.80;99.90;;;;;;5031416;28;20128;-76
2023/08/29 09:58:11;;;;;;;0.10;0.10;;;18.90;99.90;;;;;;5028854;28;20115;-76
2023/08/29 10:00:38;;;;;;;0.20;0.20;;;18.90;99.90;;;;;;5049783;28;20110;-76
2023/08/29 10:03:08;;;;;;;0.20;0.20;;;19.00;99.90;;;;;;5030265;28;20037;-77
2023/08/29 10:05:36;;;;;;;0.13;0.13;;;19.10;99.90;;;;;;5028752;28;20069;-76
2023/08/29 10:08:22;;;;;;;0.20;0.20;;;19.20;99.90;;;;;;5027683;28;20048;-76
2023/08/29 10:10:48;;;;;;;0.20;0.20;;;19.20;99.90;;;;;;5029676;28;20619;-82
2023/08/29 10:13:15;;;;;;;0.20;0.20;;;19.30;99.90;;;;;;5027337;28;20052;-78
2023/08/29 10:15:42;;;;;;;0.20;0.20;;;19.40;99.90;;;;;;5024990;28;20124;-78
2023/08/29 10:18:08;;;;;;;0.20;0.20;;;19.40;99.90;;;;;;5027801;28;20051;-78
2023/08/29 10:20:35;;;;;;;0.10;0.10;;;19.50;99.90;;;;;;5043058;28;20037;-79
2023/08/29 10:23:03;;;;;;;0.15;0.15;;;19.50;99.90;;;;;;5048269;28;20060;-78
2023/08/29 10:25:29;;;;;;;0.10;0.10;;;19.60;99.90;;;;;;5026684;28;20057;-79
2023/08/29 10:27:55;;;;;;;0.20;0.20;;;19.70;99.90;;;;;;5021952;28;20040;-79
2023/08/29 10:30:25;;;;;;;0.20;0.20;;;19.70;99.90;;;;;;5029580;28;20064;-78
2023/08/29 10:32:53;;;;;;;0.20;0.20;;;19.80;99.90;;;;;;5030160;28;20052;-79
2023/08/29 10:35:22;;;;;;;0.30;0.30;;;19.80;99.90;;;;;;5019601;28;20049;-78
2023/08/29 10:37:52;;;;;;;0.20;0.20;;;19.90;99.90;;;;;;5046312;28;20048;-78
2023/08/29 10:40:19;;;;;;;0.20;0.20;;;19.90;99.90;;;;;;5042767;28;20041;-78
2023/08/29 10:42:49;;;;;;;0.10;0.10;;;19.90;99.90;;;;;;5047951;28;20086;-79
2023/08/29 10:45:14;;;;;;;0.17;0.17;;;20.00;99.90;;;;;;5044078;28;20445;-78
2023/08/29 10:47:46;;;;;;;0.20;0.20;;;20.10;99.90;;;;;;5043205;28;20037;-78
2023/08/29 10:50:18;;;;;;;0.17;0.17;;;20.10;99.90;;;;;;5024673;28;20488;-78
2023/08/29 10:52:44;;;;;;;0.20;0.20;;;20.20;99.90;;;;;;5023768;28;20060;-78
2023/08/29 10:55:32;;;;;;;0.20;0.20;;;20.30;99.90;;;;;;5045243;28;20093;-78
2023/08/29 10:58:00;;;;;;;0.20;0.20;;;20.30;99.90;;;;;;5045172;28;20070;-78
2023/08/29 11:00:41;;;;;;;0.20;0.20;;;20.40;99.90;;;;;;5030022;28;20056;-79
2023/08/29 11:03:07;;;;;;;0.20;0.20;;;20.50;99.90;;;;;;5021613;28;20090;-79
2023/08/29 11:05:38;;;;;;;0.20;0.20;;;20.60;99.90;;;;;;5040447;28;20423;-79
2023/08/29 11:08:23;;;;;;;0.10;0.10;;;20.60;99.90;;;;;;5024681;28;20136;-78
2023/08/29 11:11:14;;;;;;;0.20;0.20;;;20.70;99.90;;;;;;5046652;28;20052;-79
2023/08/29 11:14:01;;;;;;;0.20;0.20;;;20.70;99.90;;;;;;5042676;28;20404;-79
2023/08/29 11:16:37;;;;;;;0.20;0.20;;;20.80;99.90;;;;;;5044158;28;20045;-79
2023/08/29 11:19:09;;;;;;;0.20;0.20;;;20.90;99.90;;;;;;5023661;28;20048;-80
2023/08/29 11:21:35;;;;;;;0.20;0.20;;;20.90;99.90;;;;;;5023554;28;20493;-80
2023/08/29 11:24:05;;;;;;;0.20;0.20;;;20.90;99.90;;;;;;5030352;28;20041;-80
2023/08/29 11:26:35;;;;;;;0.10;0.10;;;20.90;99.90;;;;;;5030158;28;20072;-79
2023/08/29 11:29:01;;;;;;;0.20;0.20;;;20.90;99.90;;;;;;5047692;28;20091;-80
2023/08/29 11:31:29;;;;;;;0.20;0.20;;;20.80;99.90;;;;;;5028459;28;20049;-80
2023/08/29 11:33:55;;;;;;;0.15;0.15;;;20.80;99.90;;;;;;5030622;28;20396;-80
2023/08/29 11:36:20;;;;;;;0.17;0.17;;;20.90;99.90;;;;;;5028976;28;20112;-81
2023/08/29 11:38:46;;;;;;;0.20;0.20;;;20.90;99.90;;;;;;5040182;28;20441;-79
2023/08/29 11:41:14;;;;;;;0.20;0.20;;;20.80;99.90;;;;;;5047486;28;20130;-80
2023/08/29 11:43:40;;;;;;;0.20;0.20;;;20.80;99.90;;;;;;5020670;28;20057;-80
2023/08/29 11:46:06;;;;;;;0.15;0.15;;;20.80;99.90;;;;;;5024385;28;20173;-81
2023/08/29 11:48:33;;;;;;;0.17;0.17;;;20.80;99.90;;;;;;5046747;28;20558;-80
2023/08/29 11:51:07;;;;;;;0.20;0.20;;;20.90;99.90;;;;;;5027393;28;20067;-80
2023/08/29 11:53:34;;;;;;;0.20;0.20;;;20.90;99.90;;;;;;5046206;28;20044;-80
2023/08/29 11:56:05;;;;;;;0.20;0.20;;;20.90;99.90;;;;;;5045497;28;20028;-80
2023/08/29 11:58:36;;;;;;;0.20;0.20;;;21.00;99.90;;;;;;5025466;28;20119;-80
2023/08/29 12:01:03;;;;;;;0.20;0.20;;;21.00;99.90;;;;;;5022517;28;20523;-80
2023/08/29 12:03:29;;;;;;;0.20;0.20;;;21.00;99.90;;;;;;5016556;28;20057;-80
2023/08/29 12:05:58;;;;;;;0.20;0.20;;;21.00;99.90;;;;;;5020644;28;20045;-80
2023/08/29 12:08:37;;;;;;;0.20;0.20;;;21.10;99.90;;;;;;5030119;28;20041;-80
2023/08/29 12:11:05;;;;;;;0.20;0.20;;;21.10;99.90;;;;;;5018810;28;20080;-79
2023/08/29 12:13:31;;;;;;;0.20;0.20;;;21.10;99.90;;;;;;5021423;28;20052;-80
2023/08/29 12:15:57;;;;;;;0.20;0.20;;;21.10;99.90;;;;;;5026811;28;20037;-80
2023/08/29 12:18:24;;;;;;;0.20;0.20;;;21.10;99.90;;;;;;5029866;28;20257;-80
2023/08/29 12:20:50;;;;;;;0.10;0.10;;;21.20;99.90;;;;;;5029032;28;20042;-80
2023/08/29 12:23:34;;;;;;;0.20;0.20;;;21.10;99.90;;;;;;5023987;28;20041;-80
2023/08/29 12:26:00;;;;;;;0.20;0.20;;;21.20;99.90;;;;;;5027969;28;20083;-80
2023/08/29 12:28:26;;;;;;;0.20;0.20;;;21.20;99.90;;;;;;5029645;28;20059;-80
2023/08/29 12:30:56;;;;;;;0.20;0.20;;;21.20;99.90;;;;;;5029133;28;20320;-81
2023/08/29 12:33:23;;;;;;;0.20;0.20;;;21.20;99.90;;;;;;5028634;28;20484;-80
2023/08/29 12:35:49;;;;;;;0.10;0.10;;;21.20;99.90;;;;;;5027850;28;20068;-80
2023/08/29 12:38:15;;;;;;;0.20;0.20;;;21.30;99.90;;;;;;5032109;28;20038;-80
2023/08/29 12:40:41;;;;;;;0.20;0.20;;;21.40;99.90;;;;;;5021185;28;20493;-79
2023/08/29 12:43:09;;;;;;;0.20;0.20;;;21.50;99.90;;;;;;5030655;28;20095;-80
2023/08/29 12:45:35;;;;;;;0.20;0.20;;;21.60;99.90;;;;;;5028327;28;20045;-80
2023/08/29 12:48:02;;;;;;;0.20;0.20;;;21.60;99.90;;;;;;5029785;28;20132;-80